CW1291 Weather Reports


Display with metric or nautical units.
time (UTC)temp
F
wind
direction
speed
MPH
gust
MPH
rain 1hr
in
rain 24hr
in
rain mn
in
humidity
%
barometer
mb
20210306162735 22 306 4.0 6.0 0.00 0.00 0.00 69 1019.0
20210306160434 22 279 4.0 8.0 0.00 0.00 0.00 69 1019.3
20210306154433 21 297 6.0 8.0 0.00 0.00 0.00 68 1019.3
20210306151434 21 312 4.0 9.0 0.00 0.00 0.00 72 1019.3
20210306150435 21 295 4.0 5.0 0.00 0.00 0.00 70 1019.0
20210306143435 21 289 7.0 10.0 0.00 0.00 0.00 67 1019.0
20210306141440 21 315 4.0 7.0 0.00 0.00 0.00 70 1019.0
20210306140436 20 308 6.0 9.0 0.00 0.00 0.00 70 1019.0
20210306135753 21 286 5.0 8.0 0.00 0.00 0.00 69 1019.0
20210306133022 21 321 5.0 10.0 0.00 0.00 0.00 68 1018.6
20210306131442 21 285 5.0 10.0 0.00 0.00 0.00 67 1018.6
20210306121438 20 301 5.0 9.0 0.00 0.00 0.00 69 1017.9
20210306115919 20 316 4.0 8.0 0.00 0.00 0.00 69 1017.6
20210306114434 20 268 5.0 10.0 0.00 0.00 0.00 68 1017.6
20210306110624 21 305 4.0 10.0 0.00 0.00 0.00 70 1017.3
20210306110020 21 337 3.0 9.0 0.00 0.00 0.00 70 1016.9
20210306103433 21 354 4.0 8.0 0.00 0.00 0.00 69 1016.9
20210306101433 22 306 3.0 6.0 0.00 0.00 0.00 68 1016.9
20210306100435 22 304 4.0 6.0 0.00 0.00 0.00 68 1016.9
20210306094433 22 296 3.0 5.0 0.00 0.00 0.00 67 1016.9
20210306083440 22 326 3.0 5.0 0.00 0.00 0.00 71 1016.2
20210306081433 22 326 2.0 4.0 0.00 0.00 0.00 72 1016.2
20210306080436 22 4 2.0 4.0 0.00 0.00 0.00 72 1016.2
20210306075907 22 321 3.0 5.0 0.00 0.00 0.00 74 1016.2
20210306072928 22 354 1.0 4.0 0.00 0.00 0.00 78 1016.2
20210306071441 23 37 1.0 3.0 0.00 0.00 0.00 77 1015.9
20210306064525 24 24 4.0 8.0 0.00 0.00 0.00 72 1016.2
20210306063435 24 6 5.0 7.0 0.00 0.00 0.00 68 1015.9
20210306055911 25 349 7.0 12.0 0.00 0.00 0.00 65 1015.6
20210306053944 25 166 6.0 12.0 0.00 0.00 0.00 63 1015.2
20210306053048 26 319 6.0 9.0 0.00 0.00 0.00 63 1014.9
20210306052607 26 319 7.0 13.0 0.00 0.00 0.00 62 1014.9
20210306051321 26 22 7.0 12.0 0.00 0.00 0.00 65 1014.6
20210306050334 27 180 7.0 11.0 0.00 0.00 0.00 62 1014.6
20210306045853 27 346 7.0 12.0 0.00 0.00 0.00 64 1014.2
20210306043435 28 332 8.0 15.0 0.00 0.00 0.00 67 1014.2
20210306042807 29 181 7.0 13.0 0.00 0.00 0.00 65 1014.2
20210306041436 30 292 6.0 11.0 0.00 0.00 0.00 62 1013.9
20210306033435 31 296 6.0 12.0 0.00 0.00 0.00 57 1013.5
20210306030434 31 301 4.0 10.0 0.00 0.00 0.00 53 1013.5
20210306025933 31 283 3.0 5.0 0.00 0.00 0.00 52 1013.5
20210306022713 30 294 3.0 5.0 0.00 0.00 0.00 51 1013.5
20210306021435 30 295 4.0 9.0 0.00 0.00 0.00 50 1013.5
20210306020434 30 282 5.0 9.0 0.00 0.00 0.00 49 1013.5
20210306014437 30 295 6.0 9.0 0.00 0.00 0.00 49 1013.5
20210306013434 30 325 6.0 12.0 0.00 0.00 0.00 49 1013.9
20210306012822 30 286 7.0 11.0 0.00 0.00 0.00 49 1013.5
20210306005804 30 307 5.0 11.0 0.00 0.00 0.00 52 1013.5
20210306004434 31 325 5.0 9.0 0.00 0.00 0.00 52 1013.5
20210306003536 31 322 5.0 9.0 0.00 0.00 0.00 52 1013.5
20210306000438 31 281 4.0 11.0 0.00 0.00 0.00 57 1013.2
20210305235857 31 280 5.0 8.0 0.00 0.00 0.00 60 1013.2
20210305233445 31 283 9.0 13.0 0.00 0.00 0.00 57 1012.9
20210305232836 32 309 8.0 13.0 0.00 0.00 0.00 53 1012.5
20210305220436 32 274 9.0 13.0 0.00 0.00 0.00 47 1011.8
20210305214440 32 300 8.0 16.0 0.00 0.00 0.00 46 1011.5
20210305213434 32 303 10.0 30.0 0.00 0.00 0.00 45 1011.8
20210305212903 32 279 7.0 22.0 0.00 0.00 0.00 46 1011.5
20210305210433 31 286 10.0 17.0 0.00 0.00 0.00 43 1011.5
20210305205726 31 298 10.0 18.0 0.00 0.00 0.00 42 1011.5
20210305203434 31 282 12.0 20.0 0.00 0.00 0.00 41 1011.5
20210305195940 31 275 9.0 15.0 0.00 0.00 0.00 43 1011.8
20210305194439 31 250 10.0 21.0 0.00 0.00 0.00 41 1011.8
20210305193434 31 253 9.0 22.0 0.00 0.00 0.00 42 1011.8
20210305191435 30 292 10.0 21.0 0.00 0.00 0.00 44 1012.2
20210305190434 30 299 9.0 19.0 0.00 0.00 0.00 45 1012.2
20210305185826 30 261 10.0 15.0 0.00 0.00 0.00 47 1012.5
20210305184437 29 277 9.0 17.0 0.00 0.00 0.00 47 1012.5
20210305183438 29 268 10.0 20.0 0.00 0.00 0.00 49 1012.9
20210305182725 29 278 10.0 19.0 0.00 0.00 0.00 50 1012.9
20210305175903 28 278 9.0 17.0 0.00 0.00 0.00 52 1013.5
20210305173434 28 303 8.0 14.0 0.00 0.00 0.00 53 1013.9
20210305172815 27 233 9.0 17.0 0.00 0.00 0.00 53 1014.2
20210305164434 26 270 7.0 13.0 0.00 0.00 0.00 55 1014.9